createdAt,value
2019-05-16T00:01:34.843Z,10.27
2019-05-16T00:04:08.709Z,10.28
2019-05-16T00:06:40.815Z,10.26
2019-05-16T00:09:12.766Z,10.27
2019-05-16T00:11:44.702Z,10.27
2019-05-16T00:14:18.713Z,10.31
2019-05-16T00:16:50.708Z,10.30
2019-05-16T00:19:22.682Z,10.30
2019-05-16T00:21:54.641Z,10.31
2019-05-16T00:24:29.000Z,10.29
2019-05-16T00:27:00.306Z,10.31
2019-05-16T00:29:32.318Z,10.30
2019-05-16T00:32:04.281Z,10.30
2019-05-16T00:34:38.352Z,10.31
2019-05-16T00:37:10.208Z,10.31
2019-05-16T00:39:42.147Z,10.30
2019-05-16T00:42:14.129Z,10.30
2019-05-16T00:44:47.870Z,10.27
2019-05-16T00:47:19.718Z,10.26
2019-05-16T00:49:51.665Z,10.25
2019-05-16T00:52:23.651Z,10.24
2019-05-16T00:54:57.844Z,10.26
2019-05-16T00:57:30.281Z,10.26
2019-05-16T01:00:02.620Z,10.25
2019-05-16T01:02:34.658Z,10.27
2019-05-16T01:05:08.618Z,10.25
2019-05-16T01:07:40.936Z,10.26
2019-05-16T01:10:12.996Z,10.28
2019-05-16T01:12:44.974Z,10.28
2019-05-16T01:15:18.451Z,10.31
2019-05-16T01:17:50.561Z,10.32
2019-05-16T01:20:22.536Z,10.34
2019-05-16T01:22:54.597Z,10.37
2019-05-16T01:25:28.219Z,10.35
2019-05-16T01:28:00.613Z,10.33
2019-05-16T01:30:32.549Z,10.35
2019-05-16T01:33:04.610Z,10.40
2019-05-16T01:35:38.363Z,10.41
2019-05-16T01:38:10.341Z,10.43
2019-05-16T01:40:42.333Z,10.46
2019-05-16T01:43:14.267Z,10.42
2019-05-16T01:45:48.463Z,10.42
2019-05-16T01:48:20.348Z,10.46
2019-05-16T01:50:52.335Z,10.50
2019-05-16T01:53:24.421Z,10.49
2019-05-16T01:55:58.029Z,10.49
2019-05-16T01:58:30.693Z,10.48
2019-05-16T02:01:12.146Z,10.48
2019-05-16T02:03:38.612Z,10.48
2019-05-16T02:06:10.497Z,10.45
2019-05-16T02:08:42.480Z,10.45
2019-05-16T02:11:14.482Z,10.41
2019-05-16T02:13:48.391Z,10.35
2019-05-16T02:16:20.773Z,10.38
2019-05-16T02:18:52.712Z,10.41
2019-05-16T02:21:24.693Z,10.45
2019-05-16T02:23:58.556Z,10.46
2019-05-16T02:26:30.621Z,10.44
2019-05-16T02:29:02.644Z,10.49
2019-05-16T02:31:34.625Z,10.51
2019-05-16T02:34:06.691Z,10.54
2019-05-16T02:36:40.511Z,10.58
2019-05-16T02:39:12.358Z,10.58
2019-05-16T02:41:46.216Z,10.62
2019-05-16T02:44:20.804Z,10.62
2019-05-16T02:46:54.549Z,10.64
2019-05-16T02:49:26.514Z,10.66
2019-05-16T02:52:01.173Z,10.70
2019-05-16T02:54:32.137Z,10.73
2019-05-16T02:57:04.164Z,10.75
2019-05-16T02:59:36.352Z,10.73
2019-05-16T03:02:11.165Z,10.73
2019-05-16T03:04:44.308Z,10.72
2019-05-16T03:07:35.498Z,10.73
2019-05-16T03:09:51.527Z,10.73
2019-05-16T03:12:26.249Z,10.71
2019-05-16T03:15:02.404Z,10.69
2019-05-16T03:17:36.810Z,10.65
2019-05-16T03:20:10.823Z,10.64
2019-05-16T03:22:44.262Z,10.63
2019-05-16T03:25:16.285Z,10.66
2019-05-16T03:27:51.138Z,10.67
2019-05-16T03:30:23.705Z,10.60
2019-05-16T03:32:55.630Z,10.58
2019-05-16T03:35:33.365Z,10.59
2019-05-16T03:38:05.397Z,10.64
2019-05-16T03:40:41.034Z,10.69
2019-05-16T03:43:11.817Z,10.74
2019-05-16T03:45:43.748Z,10.82
2019-05-16T03:48:15.711Z,10.83
2019-05-16T03:50:50.486Z,10.87
2019-05-16T03:53:23.185Z,10.89
2019-05-16T03:55:55.143Z,10.89
2019-05-16T03:58:27.120Z,10.96
2019-05-16T04:01:02.299Z,10.95
2019-05-16T04:03:33.464Z,10.96
2019-05-16T04:06:05.670Z,11.00
2019-05-16T04:08:37.678Z,11.06
2019-05-16T04:11:11.638Z,11.13
2019-05-16T04:13:43.435Z,11.08
2019-05-16T04:16:15.396Z,10.99
2019-05-16T04:18:47.379Z,10.92
2019-05-16T04:21:21.908Z,10.92
2019-05-16T04:23:53.792Z,10.94
2019-05-16T04:26:25.812Z,10.95
2019-05-16T04:29:00.536Z,10.94
2019-05-16T04:31:31.497Z,11.01
2019-05-16T04:34:03.608Z,10.98
2019-05-16T04:36:35.587Z,11.01
2019-05-16T04:39:11.879Z,11.12
2019-05-16T04:41:42.983Z,11.18
2019-05-16T04:44:15.068Z,11.18
2019-05-16T04:46:47.023Z,11.23
2019-05-16T04:49:21.207Z,11.31
2019-05-16T04:51:52.707Z,11.29
2019-05-16T04:54:24.749Z,11.31
2019-05-16T04:56:56.704Z,11.39
2019-05-16T04:59:31.140Z,11.46
2019-05-16T05:02:02.505Z,11.46
2019-05-16T05:04:34.469Z,11.35
2019-05-16T05:07:06.444Z,11.21
2019-05-16T05:09:40.841Z,11.20
2019-05-16T05:12:12.135Z,11.29
2019-05-16T05:14:44.628Z,11.43
2019-05-16T05:17:16.601Z,11.49
2019-05-16T05:19:50.670Z,11.59
2019-05-16T05:22:22.339Z,11.58
2019-05-16T05:24:54.311Z,11.66
2019-05-16T05:27:26.281Z,11.77
2019-05-16T05:30:00.818Z,11.76
2019-05-16T05:32:32.076Z,11.79
2019-05-16T05:35:04.144Z,11.87
2019-05-16T05:37:36.166Z,11.85
2019-05-16T05:40:10.577Z,11.97
2019-05-16T05:42:42.793Z,12.13
2019-05-16T05:45:14.967Z,12.33
2019-05-16T05:47:46.975Z,12.53
2019-05-16T05:50:20.152Z,12.64
2019-05-16T05:52:52.485Z,12.70
2019-05-16T05:55:24.576Z,12.70
2019-05-16T05:57:56.567Z,12.64
2019-05-16T06:00:30.408Z,12.64
2019-05-16T06:03:02.373Z,12.69
2019-05-16T06:05:34.945Z,12.74
2019-05-16T06:08:06.974Z,12.76
2019-05-16T06:10:40.572Z,12.83
2019-05-16T06:13:12.711Z,12.96
2019-05-16T06:15:44.732Z,13.13
2019-05-16T06:18:16.758Z,13.27
2019-05-16T06:20:50.882Z,13.38
2019-05-16T06:23:22.473Z,13.49
2019-05-16T06:25:54.477Z,13.72
2019-05-16T06:28:26.555Z,13.89
2019-05-16T06:31:01.419Z,13.96
2019-05-16T06:33:33.044Z,14.04
2019-05-16T06:36:05.002Z,14.16
2019-05-16T06:38:36.983Z,14.31
2019-05-16T06:41:10.630Z,14.43
2019-05-16T06:43:42.854Z,14.56
2019-05-16T06:46:15.227Z,14.64
2019-05-16T06:48:47.225Z,14.69
2019-05-16T06:51:20.079Z,14.82
2019-05-16T06:53:52.223Z,14.87
2019-05-16T06:56:24.289Z,14.93
2019-05-16T06:58:56.334Z,14.90
2019-05-16T07:01:29.755Z,14.76
2019-05-16T07:04:04.895Z,14.50
2019-05-16T07:06:51.879Z,14.28
2019-05-16T07:09:10.576Z,14.05
2019-05-16T07:11:42.964Z,13.87
2019-05-16T07:14:14.968Z,13.92
2019-05-16T07:16:46.957Z,13.79
2019-05-16T07:19:20.765Z,13.80
2019-05-16T07:21:52.995Z,13.98
2019-05-16T07:24:25.215Z,14.12
2019-05-16T07:26:57.223Z,14.24
2019-05-16T07:29:30.849Z,14.35
2019-05-16T07:32:03.082Z,14.44
2019-05-16T07:34:35.197Z,14.46
2019-05-16T07:37:07.175Z,14.46
2019-05-16T07:39:41.784Z,14.71
2019-05-16T07:42:12.976Z,15.09
2019-05-16T07:44:45.522Z,15.07
2019-05-16T07:47:20.111Z,15.03
2019-05-16T07:49:51.582Z,14.93
2019-05-16T07:52:23.564Z,15.01
2019-05-16T07:54:55.733Z,15.03
2019-05-16T07:57:27.777Z,15.08
2019-05-16T08:00:00.371Z,15.33
2019-05-16T08:02:32.392Z,15.63
2019-05-16T08:05:04.439Z,15.77
2019-05-16T08:07:36.449Z,15.86
2019-05-16T08:10:10.707Z,15.94
2019-05-16T08:12:42.812Z,16.11
2019-05-16T08:15:15.018Z,16.27
2019-05-16T08:17:47.010Z,16.40
2019-05-16T08:20:21.378Z,16.52
2019-05-16T08:22:53.069Z,16.74
2019-05-16T08:25:25.150Z,16.97
2019-05-16T08:28:00.558Z,17.19
2019-05-16T08:30:31.834Z,17.42
2019-05-16T08:33:03.936Z,17.53
2019-05-16T08:35:36.089Z,17.69
2019-05-16T08:38:08.102Z,17.82
2019-05-16T08:41:03.463Z,18.07
2019-05-16T08:43:14.267Z,18.35
2019-05-16T08:45:46.434Z,18.75
2019-05-16T08:48:22.896Z,18.86
2019-05-16T08:53:25.828Z,19.25
2019-05-16T08:55:57.854Z,19.48
2019-05-16T08:58:33.096Z,19.59
2019-05-16T09:01:05.670Z,19.63
2019-05-16T09:03:40.731Z,19.67
2019-05-16T09:06:11.985Z,19.70
2019-05-16T09:08:44.265Z,19.84
2019-05-16T09:10:35.642Z,18.89
2019-05-16T09:11:33.971Z,19.92
2019-05-16T09:13:50.316Z,20.15
2019-05-16T09:16:22.383Z,20.31
2019-05-16T09:18:57.359Z,20.17
2019-05-16T09:21:28.212Z,20.21
2019-05-16T09:24:00.228Z,20.79
2019-05-16T09:26:32.287Z,21.31
2019-05-16T09:29:04.342Z,21.71
2019-05-16T09:31:38.584Z,21.87
2019-05-16T09:34:10.430Z,21.98
2019-05-16T09:36:42.634Z,22.04
2019-05-16T09:39:16.975Z,21.98
2019-05-16T09:41:54.469Z,21.90
2019-05-16T09:44:23.168Z,21.68
2019-05-16T09:46:56.955Z,21.53
2019-05-16T09:49:29.376Z,21.48
2019-05-16T09:52:01.468Z,21.55
2019-05-16T09:54:33.468Z,21.73
2019-05-16T09:57:06.519Z,21.94
2019-05-16T09:59:38.778Z,22.13
2019-05-16T10:02:11.528Z,22.25
2019-05-16T10:04:43.539Z,22.41
2019-05-16T10:07:17.960Z,22.62
2019-05-16T10:09:50.297Z,22.90
2019-05-16T10:12:22.640Z,23.22
2019-05-16T10:14:54.656Z,23.46
2019-05-16T10:17:27.249Z,23.52
2019-05-16T10:20:00.195Z,23.25
2019-05-16T10:22:32.585Z,23.03
2019-05-16T10:25:05.082Z,22.86
2019-05-16T10:27:37.202Z,22.81
2019-05-16T10:30:10.298Z,22.76
2019-05-16T10:32:42.303Z,22.81
2019-05-16T10:35:14.756Z,22.87
2019-05-16T10:37:47.138Z,22.58
2019-05-16T10:40:20.105Z,21.42
2019-05-16T10:42:52.125Z,20.68
2019-05-16T10:45:24.106Z,20.13
2019-05-16T10:47:56.104Z,20.30
2019-05-16T10:50:28.128Z,20.07
2019-05-16T10:53:22.660Z,19.77
2019-05-16T10:55:36.741Z,19.53
2019-05-16T10:58:08.411Z,19.33
2019-05-16T11:01:07.799Z,18.67
2019-05-16T11:03:14.185Z,18.87
2019-05-16T11:06:01.289Z,19.34
2019-05-16T11:08:19.973Z,19.33
2019-05-16T11:10:51.940Z,19.29
2019-05-16T11:13:24.078Z,18.71
2019-05-16T11:15:56.280Z,18.14
2019-05-16T11:18:28.523Z,18.24
2019-05-16T11:21:00.789Z,18.19
2019-05-16T11:23:32.986Z,18.13
2019-05-16T11:26:05.058Z,18.51
2019-05-16T11:28:37.075Z,19.00
2019-05-16T11:31:09.203Z,19.19
2019-05-16T11:33:41.243Z,19.28
2019-05-16T11:36:13.333Z,19.40
2019-05-16T11:38:47.488Z,19.59
2019-05-16T11:41:20.822Z,19.77
2019-05-16T11:43:52.925Z,19.77
2019-05-16T11:46:27.871Z,19.81
2019-05-16T11:48:58.707Z,19.68
2019-05-16T11:51:31.113Z,19.73
2019-05-16T11:54:03.138Z,20.00
2019-05-16T11:56:37.088Z,20.04
2019-05-16T11:59:09.200Z,20.00
2019-05-16T12:01:41.281Z,19.97
2019-05-16T12:04:13.287Z,19.88
2019-05-16T12:06:46.873Z,19.58
2019-05-16T12:09:19.039Z,18.82
2019-05-16T12:11:59.692Z,18.48
2019-05-16T12:14:27.209Z,18.53
2019-05-16T12:16:59.400Z,18.39
2019-05-16T12:19:35.481Z,17.94
2019-05-16T12:22:07.022Z,17.31
2019-05-16T12:24:41.465Z,16.87
2019-05-16T12:27:13.012Z,16.50
2019-05-16T12:29:50.281Z,16.29
2019-05-16T12:32:20.902Z,16.29
2019-05-16T12:34:52.983Z,16.26
2019-05-16T12:37:27.415Z,16.16
2019-05-16T12:39:58.771Z,16.36
2019-05-16T12:42:30.986Z,16.63
2019-05-16T12:45:03.020Z,16.80
2019-05-16T12:47:37.502Z,17.03
2019-05-16T12:50:09.681Z,17.08
2019-05-16T12:52:42.305Z,17.00
2019-05-16T12:55:16.439Z,16.91
2019-05-16T12:57:49.056Z,16.62
2019-05-16T13:00:22.804Z,16.18
2019-05-16T13:02:57.453Z,16.20
2019-05-16T13:05:29.026Z,16.73
2019-05-16T13:08:01.019Z,18.16
2019-05-16T13:10:33.077Z,19.85
2019-05-16T13:13:07.559Z,21.13
2019-05-16T13:15:41.836Z,22.06
2019-05-16T13:18:12.608Z,22.67
2019-05-16T13:20:46.821Z,23.20
2019-05-16T13:23:18.543Z,23.82
2019-05-16T13:25:50.920Z,24.14
2019-05-16T13:28:23.041Z,24.27
2019-05-16T13:30:57.519Z,24.16
2019-05-16T13:33:28.903Z,23.76
2019-05-16T13:36:01.399Z,23.05
2019-05-16T13:38:33.420Z,22.44
2019-05-16T13:41:07.472Z,21.85
2019-05-16T13:43:39.138Z,21.39
2019-05-16T13:46:11.247Z,20.84
2019-05-16T13:48:43.311Z,20.50
2019-05-16T13:51:18.475Z,20.40
2019-05-16T13:53:49.077Z,20.31
2019-05-16T13:56:21.244Z,19.89
2019-05-16T13:58:53.222Z,19.92
2019-05-16T14:01:27.616Z,19.93
2019-05-16T14:03:59.053Z,19.99
2019-05-16T14:06:31.347Z,20.00
2019-05-16T14:09:07.224Z,20.01
2019-05-16T14:11:38.821Z,20.08
2019-05-16T14:14:10.788Z,20.07
2019-05-16T14:16:43.207Z,19.48
2019-05-16T14:19:17.449Z,19.10
2019-05-16T14:21:48.917Z,18.84
2019-05-16T14:24:21.290Z,19.11
2019-05-16T14:26:53.296Z,19.69
2019-05-16T14:29:27.764Z,19.90
2019-05-16T14:31:59.099Z,19.89
2019-05-16T14:34:31.288Z,19.38
2019-05-16T14:37:03.238Z,18.86
2019-05-16T14:39:38.464Z,18.47
2019-05-16T14:42:09.101Z,18.12
2019-05-16T14:45:02.933Z,17.85
2019-05-16T14:47:17.564Z,17.56
2019-05-16T14:49:49.151Z,17.31
2019-05-16T14:52:21.259Z,17.24
2019-05-16T14:54:53.327Z,17.13
2019-05-16T14:57:27.195Z,17.02
2019-05-16T14:59:59.091Z,16.87
2019-05-16T15:02:31.224Z,16.79
2019-05-16T15:05:03.202Z,16.73
2019-05-16T15:07:37.595Z,16.69
2019-05-16T15:10:09.410Z,16.70
2019-05-16T15:12:41.424Z,16.55
2019-05-16T15:15:21.326Z,16.52
2019-05-16T15:17:52.304Z,16.50
2019-05-16T15:20:27.610Z,16.48
2019-05-16T15:22:58.089Z,16.54
2019-05-16T15:25:30.094Z,16.55
2019-05-16T15:28:02.073Z,16.61
2019-05-16T15:30:39.142Z,16.62
2019-05-16T15:33:08.966Z,16.63
2019-05-16T15:35:41.229Z,16.63
2019-05-16T15:38:13.297Z,16.67
2019-05-16T15:40:47.904Z,16.48
2019-05-16T15:43:19.003Z,16.44
2019-05-16T15:45:53.116Z,16.63
2019-05-16T15:48:27.371Z,16.68
2019-05-16T15:51:00.048Z,16.71
2019-05-16T15:53:32.246Z,16.73
2019-05-16T15:56:07.014Z,16.76
2019-05-16T15:58:38.085Z,16.65
2019-05-16T16:01:10.449Z,16.46
2019-05-16T16:03:42.440Z,16.28
2019-05-16T16:06:14.494Z,16.21
2019-05-16T16:08:48.021Z,16.18
2019-05-16T16:11:20.384Z,16.22
2019-05-16T16:13:52.578Z,16.23
2019-05-16T16:16:26.642Z,16.07
2019-05-16T16:18:59.347Z,16.07
2019-05-16T16:21:31.402Z,16.07
2019-05-16T16:24:05.812Z,16.07
2019-05-16T16:26:38.220Z,16.10
2019-05-16T16:29:10.930Z,16.11
2019-05-16T16:31:42.964Z,16.15
2019-05-16T16:34:17.552Z,16.11
2019-05-16T16:36:49.032Z,16.03
2019-05-16T16:39:21.280Z,16.02
2019-05-16T16:41:53.306Z,15.99
2019-05-16T16:44:27.492Z,15.91
2019-05-16T16:46:59.202Z,15.82
2019-05-16T16:49:31.300Z,15.81
2019-05-16T16:52:03.736Z,15.81
2019-05-16T16:54:36.985Z,15.82
2019-05-16T16:57:09.144Z,15.81
2019-05-16T16:59:41.316Z,15.82
2019-05-16T17:02:13.348Z,15.81
2019-05-16T17:04:50.673Z,15.82
2019-05-16T17:07:19.096Z,15.89
2019-05-16T17:09:51.182Z,15.97
2019-05-16T17:12:23.221Z,15.98
2019-05-16T17:14:56.987Z,15.90
2019-05-16T17:17:28.932Z,15.85
2019-05-16T17:20:01.503Z,15.79
2019-05-16T17:22:33.539Z,15.68
2019-05-16T17:25:07.212Z,15.60
2019-05-16T17:27:39.392Z,15.48
2019-05-16T17:30:17.354Z,15.42
2019-05-16T17:32:49.640Z,15.38
2019-05-16T17:35:21.988Z,15.33
2019-05-16T17:37:54.076Z,15.27
2019-05-16T17:40:27.457Z,15.24
2019-05-16T17:42:59.562Z,15.17
2019-05-16T17:45:31.667Z,15.11
2019-05-16T17:48:03.767Z,15.07
2019-05-16T17:50:37.376Z,15.08
2019-05-16T17:53:10.000Z,15.11
2019-05-16T17:55:42.000Z,15.17
2019-05-16T17:58:16.272Z,15.20
2019-05-16T18:00:47.995Z,15.23
2019-05-16T18:03:20.040Z,15.26
2019-05-16T18:05:52.120Z,15.26
2019-05-16T18:08:24.160Z,15.28
2019-05-16T18:10:56.645Z,15.32
2019-05-16T18:13:28.718Z,15.32
2019-05-16T18:16:01.056Z,15.31
2019-05-16T18:18:33.074Z,15.30
2019-05-16T18:21:06.903Z,15.31
2019-05-16T18:23:38.859Z,15.25
2019-05-16T18:26:11.114Z,15.22
2019-05-16T18:28:43.132Z,15.21
2019-05-16T18:31:16.747Z,15.19
2019-05-16T18:33:48.988Z,15.17
2019-05-16T18:36:21.372Z,15.17
2019-05-16T18:38:53.386Z,15.16
2019-05-16T18:41:27.214Z,15.13
2019-05-16T18:43:59.113Z,15.11
2019-05-16T18:46:31.101Z,15.11
2019-05-16T18:49:03.121Z,15.09
2019-05-16T18:51:36.960Z,15.02
2019-05-16T18:54:08.957Z,15.00
2019-05-16T18:56:41.062Z,14.95
2019-05-16T18:59:13.072Z,14.88
2019-05-16T19:01:46.841Z,14.82
2019-05-16T19:04:18.899Z,14.78
2019-05-16T19:06:50.964Z,14.73
2019-05-16T19:09:22.924Z,14.69
2019-05-16T19:11:56.570Z,14.60
2019-05-16T19:14:28.788Z,14.52
2019-05-16T19:17:00.841Z,14.48
2019-05-16T19:19:32.972Z,14.43
2019-05-16T19:22:06.561Z,14.43
2019-05-16T19:24:38.651Z,14.42
2019-05-16T19:27:11.068Z,14.41
2019-05-16T19:29:46.078Z,14.35
2019-05-16T19:32:17.837Z,14.28
2019-05-16T19:34:50.424Z,14.22
2019-05-16T19:37:22.407Z,14.17
2019-05-16T19:39:56.817Z,14.14
2019-05-16T19:42:29.784Z,14.11
2019-05-16T19:45:02.031Z,14.07
2019-05-16T19:47:37.681Z,14.08
2019-05-16T19:50:10.006Z,14.06
2019-05-16T19:52:41.973Z,14.08
2019-05-16T19:55:14.266Z,14.09
2019-05-16T19:57:46.701Z,14.07
2019-05-16T20:00:20.527Z,14.08
2019-05-16T20:02:52.620Z,14.10
2019-05-16T20:05:26.598Z,14.09
2019-05-16T20:07:58.486Z,14.06
2019-05-16T20:10:30.560Z,14.05
2019-05-16T20:13:02.646Z,14.03
2019-05-16T20:15:36.683Z,14.00
2019-05-16T20:18:08.561Z,13.95
2019-05-16T20:20:40.564Z,13.90
2019-05-16T20:23:12.695Z,13.80
2019-05-16T20:25:46.883Z,13.65
2019-05-16T20:28:18.674Z,13.54
2019-05-16T20:30:51.103Z,13.44
2019-05-16T20:33:23.310Z,13.34
2019-05-16T20:35:57.564Z,13.30
2019-05-16T20:38:29.168Z,13.23
2019-05-16T20:41:01.308Z,13.17
2019-05-16T20:43:33.295Z,13.12
2019-05-16T20:46:07.333Z,13.12
2019-05-16T20:48:39.183Z,13.16
2019-05-16T20:51:11.183Z,13.21
2019-05-16T20:53:43.146Z,13.22
2019-05-16T20:56:17.169Z,13.24
2019-05-16T20:58:48.944Z,13.26
2019-05-16T21:01:20.942Z,13.28
2019-05-16T21:03:52.908Z,13.34
2019-05-16T21:06:26.413Z,13.42
2019-05-16T21:08:58.575Z,13.44
2019-05-16T21:11:33.862Z,13.43
2019-05-16T21:14:07.075Z,13.44
2019-05-16T21:16:39.193Z,13.45
2019-05-16T21:19:11.209Z,13.45
2019-05-16T21:21:43.243Z,13.44
2019-05-16T21:24:15.205Z,13.42
2019-05-16T21:26:47.757Z,13.40
2019-05-16T21:29:20.265Z,13.39
2019-05-16T21:31:52.283Z,13.40
2019-05-16T21:34:24.291Z,13.37
2019-05-16T21:37:04.713Z,13.38
2019-05-16T21:39:30.416Z,13.40
2019-05-16T21:42:02.451Z,13.41
2019-05-16T21:44:37.213Z,13.39
2019-05-16T21:47:08.264Z,13.38
2019-05-16T21:49:40.521Z,13.39
2019-05-16T21:52:12.476Z,13.36
2019-05-16T21:54:44.469Z,13.38
2019-05-16T21:57:19.627Z,13.37
2019-05-16T21:59:50.109Z,13.36
2019-05-16T22:02:22.356Z,13.38
2019-05-16T22:04:56.710Z,13.39
2019-05-16T22:07:33.619Z,13.41
2019-05-16T22:10:01.843Z,13.41
2019-05-16T22:12:33.862Z,13.44
2019-05-16T22:15:06.726Z,13.45
2019-05-16T22:17:41.284Z,13.46
2019-05-16T22:20:16.365Z,13.41
2019-05-16T22:22:49.031Z,13.37
2019-05-16T22:25:21.431Z,13.31
2019-05-16T22:27:53.400Z,13.28
2019-05-16T22:30:27.252Z,13.25
2019-05-16T22:32:59.430Z,13.20
2019-05-16T22:35:31.577Z,13.17
2019-05-16T22:38:03.629Z,13.11
2019-05-16T22:40:37.330Z,13.06
2019-05-16T22:43:10.379Z,12.98
2019-05-16T22:45:42.692Z,12.95
2019-05-16T22:48:17.294Z,12.93
2019-05-16T22:50:50.967Z,12.85
2019-05-16T22:53:23.070Z,12.81
2019-05-16T22:55:56.666Z,12.75
2019-05-16T22:58:29.063Z,12.69
2019-05-16T23:01:01.646Z,12.59
2019-05-16T23:03:33.648Z,12.53
2019-05-16T23:06:07.894Z,12.50
2019-05-16T23:08:40.066Z,12.44
2019-05-16T23:11:12.060Z,12.41
2019-05-16T23:13:46.147Z,12.39
2019-05-16T23:16:18.389Z,12.36
2019-05-16T23:18:50.643Z,12.33
2019-05-16T23:21:22.679Z,12.29
2019-05-16T23:23:56.993Z,12.20
2019-05-16T23:26:28.801Z,12.12
2019-05-16T23:29:01.040Z,12.06
2019-05-16T23:31:33.042Z,12.00
2019-05-16T23:34:07.095Z,11.97
2019-05-16T23:36:38.726Z,11.92
2019-05-16T23:39:10.908Z,11.85
2019-05-16T23:41:43.066Z,11.87
2019-05-16T23:44:16.637Z,11.94
2019-05-16T23:46:48.847Z,12.04
2019-05-16T23:49:21.209Z,12.13
2019-05-16T23:51:53.186Z,12.21
2019-05-16T23:54:27.633Z,12.28
2019-05-16T23:56:58.822Z,12.31
2019-05-16T23:59:31.030Z,12.32
